createdAt,value
2018-05-03T00:02:01.175Z,13.60
2018-05-03T00:04:28.754Z,13.70
2018-05-03T00:06:56.377Z,13.70
2018-05-03T00:09:23.974Z,13.70
2018-05-03T00:11:51.615Z,13.70
2018-05-03T00:14:19.198Z,13.70
2018-05-03T00:16:46.814Z,13.60
2018-05-03T00:19:14.443Z,13.60
2018-05-03T00:21:42.040Z,13.70
2018-05-03T00:24:09.679Z,13.70
2018-05-03T00:26:37.267Z,13.60
2018-05-03T00:29:04.870Z,13.60
2018-05-03T00:31:32.500Z,13.60
2018-05-03T00:34:00.134Z,13.60
2018-05-03T00:36:27.722Z,13.60
2018-05-03T00:38:55.343Z,13.60
2018-05-03T00:41:22.962Z,13.60
2018-05-03T00:43:51.318Z,13.60
2018-05-03T00:46:18.939Z,13.60
2018-05-03T00:48:46.531Z,13.60
2018-05-03T00:51:14.163Z,13.60
2018-05-03T00:53:41.751Z,13.60
2018-05-03T00:56:09.379Z,13.60
2018-05-03T00:58:36.966Z,13.60
2018-05-03T01:01:04.591Z,13.60
2018-05-03T01:03:32.210Z,13.60
2018-05-03T01:05:59.811Z,13.60
2018-05-03T01:08:27.439Z,13.70
2018-05-03T01:10:55.028Z,13.60
2018-05-03T01:13:22.672Z,13.60
2018-05-03T01:15:51.031Z,13.60
2018-05-03T01:18:18.619Z,13.60
2018-05-03T01:20:47.010Z,13.60
2018-05-03T01:23:15.366Z,13.60
2018-05-03T01:25:43.754Z,13.60
2018-05-03T01:28:11.358Z,13.60
2018-05-03T01:30:38.986Z,13.60
2018-05-03T01:33:06.575Z,13.60
2018-05-03T01:35:46.219Z,13.60
2018-05-03T01:38:13.837Z,13.60
2018-05-03T01:40:41.473Z,13.60
2018-05-03T01:43:09.851Z,13.60
2018-05-03T01:45:38.259Z,13.60
2018-05-03T01:48:05.906Z,13.50
2018-05-03T01:50:33.496Z,13.60
2018-05-03T01:53:01.083Z,13.60
2018-05-03T01:55:28.701Z,13.60
2018-05-03T01:57:56.327Z,13.50
2018-05-03T02:00:24.678Z,13.50
2018-05-03T02:02:53.067Z,13.50
2018-05-03T02:05:20.667Z,13.50
2018-05-03T02:07:48.303Z,13.50
2018-05-03T02:10:15.921Z,13.50
2018-05-03T02:12:43.523Z,13.40
2018-05-03T02:15:11.147Z,13.40
2018-05-03T02:17:39.503Z,13.40
2018-05-03T02:20:07.130Z,13.40
2018-05-03T02:22:34.759Z,13.40
2018-05-03T02:25:03.114Z,13.40
2018-05-03T02:27:30.740Z,13.30
2018-05-03T02:29:58.363Z,13.40
2018-05-03T02:32:26.002Z,13.40
2018-05-03T02:34:53.587Z,13.40
2018-05-03T02:37:21.974Z,13.40
2018-05-03T02:39:49.616Z,13.40
2018-05-03T02:42:17.980Z,13.40
2018-05-03T02:44:45.596Z,13.40
2018-05-03T02:47:13.242Z,13.40
2018-05-03T02:49:40.887Z,13.40
2018-05-03T02:52:09.248Z,13.40
2018-05-03T02:54:36.839Z,13.40
2018-05-03T02:57:16.410Z,13.40
2018-05-03T02:59:55.863Z,13.40
2018-05-03T03:02:29.112Z,13.40
2018-05-03T03:05:14.490Z,13.40
2018-05-03T03:11:22.310Z,13.40
2018-05-03T03:14:08.184Z,13.40
2018-05-03T03:16:53.478Z,13.40
2018-05-03T03:19:33.665Z,13.40
2018-05-03T03:22:18.838Z,13.30
2018-05-03T03:28:05.555Z,13.40
2018-05-03T03:30:50.779Z,13.30
2018-05-03T03:33:30.378Z,13.30
2018-05-03T03:36:10.406Z,13.30
2018-05-03T03:38:49.671Z,13.30
2018-05-03T03:41:29.859Z,13.30
2018-05-03T03:44:09.294Z,13.30
2018-05-03T03:46:36.950Z,13.30
2018-05-03T03:49:04.555Z,13.20
2018-05-03T03:51:32.187Z,13.20
2018-05-03T03:53:59.794Z,13.20
2018-05-03T03:56:27.384Z,13.20
2018-05-03T03:58:55.023Z,13.20
2018-05-03T04:01:22.614Z,13.20
2018-05-03T04:03:50.243Z,13.20
2018-05-03T04:06:17.835Z,13.20
2018-05-03T04:08:45.428Z,13.20
2018-05-03T04:11:13.818Z,13.20
2018-05-03T04:13:41.407Z,13.20
2018-05-03T04:16:09.037Z,13.20
2018-05-03T04:18:48.511Z,13.30
2018-05-03T04:21:27.940Z,13.20
2018-05-03T04:24:09.215Z,13.20
2018-05-03T04:26:36.843Z,13.30
2018-05-03T04:29:05.194Z,13.40
2018-05-03T04:31:32.782Z,13.30
2018-05-03T04:34:01.183Z,13.40
2018-05-03T04:36:28.778Z,13.30
2018-05-03T04:38:56.399Z,13.40
2018-05-03T04:41:24.759Z,13.40
2018-05-03T04:43:53.155Z,13.40
2018-05-03T04:46:21.511Z,13.40
2018-05-03T04:48:49.130Z,13.40
2018-05-03T04:51:16.723Z,13.40
2018-05-03T04:53:44.355Z,13.40
2018-05-03T04:56:11.950Z,13.30
2018-05-03T04:58:39.587Z,13.30
2018-05-03T05:01:07.218Z,13.30
2018-05-03T05:03:34.806Z,13.30
2018-05-03T05:06:02.395Z,13.30
2018-05-03T05:08:30.020Z,13.40
2018-05-03T05:10:57.651Z,13.40
2018-05-03T05:13:26.006Z,13.40
2018-05-03T05:15:53.659Z,13.40
2018-05-03T05:18:21.282Z,13.40
2018-05-03T05:20:48.922Z,13.40
2018-05-03T05:23:16.530Z,13.40
2018-05-03T05:25:44.130Z,13.40
2018-05-03T05:28:11.774Z,13.40
2018-05-03T05:30:40.257Z,13.40
2018-05-03T05:33:07.856Z,13.40
2018-05-03T05:35:36.258Z,13.40
2018-05-03T05:38:03.848Z,13.40
2018-05-03T05:40:32.475Z,13.40
2018-05-03T05:43:00.846Z,13.50
2018-05-03T05:45:29.259Z,13.40
2018-05-03T05:47:56.843Z,13.40
2018-05-03T05:50:24.471Z,13.50
2018-05-03T05:52:52.091Z,13.60
2018-05-03T05:55:19.724Z,13.50
2018-05-03T05:57:48.155Z,13.50
2018-05-03T06:00:15.743Z,13.50
2018-05-03T06:02:44.130Z,13.60
2018-05-03T06:05:12.523Z,13.60
2018-05-03T06:07:40.119Z,13.60
2018-05-03T06:10:07.754Z,13.60
2018-05-03T06:12:35.343Z,13.60
2018-05-03T06:15:02.944Z,13.60
2018-05-03T06:17:31.332Z,13.70
2018-05-03T06:19:59.724Z,13.80
2018-05-03T06:22:27.310Z,13.70
2018-05-03T06:24:54.943Z,13.80
2018-05-03T06:27:22.532Z,13.70
2018-05-03T06:29:50.119Z,13.70
2018-05-03T06:32:17.742Z,13.80
2018-05-03T06:34:45.344Z,13.80
2018-05-03T06:37:12.966Z,13.70
2018-05-03T06:39:40.554Z,13.80
2018-05-03T06:42:08.179Z,13.70
2018-05-03T06:44:35.766Z,13.80
2018-05-03T06:47:03.403Z,13.80
2018-05-03T06:49:30.997Z,13.80
2018-05-03T06:51:58.591Z,13.80
2018-05-03T06:54:26.238Z,13.80
2018-05-03T06:56:53.856Z,13.70
2018-05-03T06:59:21.484Z,13.80
2018-05-03T07:01:49.839Z,13.70
2018-05-03T07:04:17.490Z,13.70
2018-05-03T07:06:45.091Z,13.70
2018-05-03T07:09:13.487Z,13.70
2018-05-03T07:11:41.146Z,13.70
2018-05-03T07:14:08.743Z,13.80
2018-05-03T07:16:36.332Z,13.80
2018-05-03T07:19:03.959Z,13.80
2018-05-03T07:21:31.587Z,13.80
2018-05-03T07:23:59.991Z,13.90
2018-05-03T07:26:27.675Z,13.90
2018-05-03T07:28:55.284Z,14.00
2018-05-03T07:31:23.829Z,14.10
2018-05-03T07:33:51.475Z,14.10
2018-05-03T07:36:19.067Z,14.10
2018-05-03T07:38:46.698Z,14.20
2018-05-03T07:41:14.287Z,14.30
2018-05-03T07:43:41.912Z,14.30
2018-05-03T07:46:09.506Z,14.30
2018-05-03T07:48:37.153Z,14.40
2018-05-03T07:51:04.756Z,14.40
2018-05-03T07:53:32.498Z,14.40
2018-05-03T07:56:00.160Z,14.40
2018-05-03T07:58:27.846Z,14.40
2018-05-03T08:00:56.284Z,14.50
2018-05-03T08:03:23.916Z,14.50
2018-05-03T08:05:51.503Z,14.50
2018-05-03T08:08:19.127Z,14.60
2018-05-03T08:10:46.757Z,14.60
2018-05-03T08:13:14.361Z,14.60
2018-05-03T08:15:41.991Z,14.60
2018-05-03T08:18:10.367Z,14.70
2018-05-03T08:20:38.354Z,14.60
2018-05-03T08:23:06.014Z,14.70
2018-05-03T08:25:34.425Z,14.70
2018-05-03T08:28:02.039Z,14.70
2018-05-03T08:30:29.667Z,14.70
2018-05-03T08:32:57.427Z,14.70
2018-05-03T08:35:25.426Z,14.80
2018-05-03T08:37:53.522Z,14.80
2018-05-03T08:40:21.414Z,14.80
2018-05-03T08:42:49.073Z,14.80
2018-05-03T08:45:17.097Z,14.80
2018-05-03T08:47:45.665Z,14.90
2018-05-03T08:50:13.429Z,14.90
2018-05-03T08:52:41.103Z,14.90
2018-05-03T08:55:08.787Z,14.90
2018-05-03T08:57:37.648Z,14.90
2018-05-03T09:00:06.402Z,15.00
2018-05-03T09:02:34.399Z,15.00
2018-05-03T09:05:03.048Z,15.00
2018-05-03T09:07:30.888Z,15.00
2018-05-03T09:09:58.507Z,15.10
2018-05-03T09:12:26.208Z,15.10
2018-05-03T09:14:54.029Z,15.10
2018-05-03T09:17:23.011Z,15.10
2018-05-03T09:19:50.923Z,15.20
2018-05-03T09:22:18.900Z,15.20
2018-05-03T09:24:47.417Z,15.20
2018-05-03T09:27:15.098Z,15.20
2018-05-03T09:29:42.726Z,15.30
2018-05-03T09:32:11.274Z,15.30
2018-05-03T09:34:38.921Z,15.20
2018-05-03T09:37:06.879Z,15.20
2018-05-03T09:39:34.639Z,15.20
2018-05-03T09:42:02.755Z,15.20
2018-05-03T09:44:30.528Z,15.20
2018-05-03T09:46:58.974Z,15.20
2018-05-03T09:49:26.721Z,15.20
2018-05-03T09:51:54.367Z,15.20
2018-05-03T09:54:22.046Z,15.30
2018-05-03T09:56:49.739Z,15.30
2018-05-03T09:59:17.411Z,15.30
2018-05-03T10:01:45.736Z,15.30
2018-05-03T10:04:13.390Z,15.40
2018-05-03T10:06:40.987Z,15.40
2018-05-03T10:09:08.641Z,15.40
2018-05-03T10:11:36.299Z,15.50
2018-05-03T10:14:04.038Z,15.50
2018-05-03T10:16:31.677Z,15.50
2018-05-03T10:18:59.361Z,15.50
2018-05-03T10:21:27.415Z,15.50
2018-05-03T10:23:55.527Z,15.50
2018-05-03T10:26:23.255Z,15.50
2018-05-03T10:28:51.246Z,15.50
2018-05-03T10:31:19.307Z,15.60
2018-05-03T10:33:47.092Z,15.60
2018-05-03T10:36:14.859Z,15.60
2018-05-03T10:38:42.688Z,15.60
2018-05-03T10:41:10.609Z,15.60
2018-05-03T10:43:38.470Z,15.60
2018-05-03T10:46:06.606Z,15.70
2018-05-03T10:48:34.287Z,15.70
2018-05-03T10:51:01.920Z,15.70
2018-05-03T10:53:29.585Z,15.70
2018-05-03T10:55:57.218Z,15.70
2018-05-03T10:58:25.063Z,15.80
2018-05-03T11:00:52.827Z,15.80
2018-05-03T11:03:20.485Z,15.80
2018-05-03T11:05:48.114Z,15.80
2018-05-03T11:08:15.953Z,15.70
2018-05-03T11:10:44.652Z,15.80
2018-05-03T11:13:12.665Z,15.80
2018-05-03T11:15:40.637Z,15.80
2018-05-03T11:18:08.681Z,15.80
2018-05-03T11:20:36.748Z,15.80
2018-05-03T11:23:04.952Z,15.80
2018-05-03T11:25:33.795Z,15.90
2018-05-03T11:28:01.892Z,15.80
2018-05-03T11:30:30.026Z,15.90
2018-05-03T11:32:58.211Z,15.90
2018-05-03T11:35:26.875Z,15.90
2018-05-03T11:37:55.278Z,15.90
2018-05-03T11:40:24.486Z,15.90
2018-05-03T11:42:52.846Z,15.90
2018-05-03T11:45:21.765Z,15.90
2018-05-03T11:47:49.893Z,15.90
2018-05-03T11:50:18.098Z,15.90
2018-05-03T11:52:47.142Z,15.90
2018-05-03T11:55:15.264Z,15.90
2018-05-03T11:57:43.239Z,15.90
2018-05-03T12:00:11.456Z,15.90
2018-05-03T12:02:39.618Z,16.00
2018-05-03T12:05:07.626Z,16.00
2018-05-03T12:07:35.875Z,16.00
2018-05-03T12:10:04.247Z,16.00
2018-05-03T12:12:32.375Z,16.00
2018-05-03T12:15:00.368Z,16.00
2018-05-03T12:17:29.398Z,16.00
2018-05-03T12:19:57.620Z,16.00
2018-05-03T12:22:26.592Z,16.00
2018-05-03T12:24:55.378Z,16.00
2018-05-03T12:27:23.418Z,16.00
2018-05-03T12:29:51.679Z,16.00
2018-05-03T12:32:19.764Z,16.00
2018-05-03T12:34:47.849Z,16.00
2018-05-03T12:37:15.944Z,16.00
2018-05-03T12:39:44.212Z,16.00
2018-05-03T12:42:12.291Z,16.10
2018-05-03T12:44:40.157Z,16.10
2018-05-03T12:47:08.188Z,16.10
2018-05-03T12:49:36.337Z,16.10
2018-05-03T12:52:04.491Z,16.10
2018-05-03T12:54:32.524Z,16.10
2018-05-03T12:57:00.614Z,16.10
2018-05-03T12:59:29.310Z,16.10
2018-05-03T13:01:57.200Z,16.10
2018-05-03T13:04:25.207Z,16.00
2018-05-03T13:06:53.818Z,16.10
2018-05-03T13:09:21.840Z,16.10
2018-05-03T13:11:50.721Z,16.20
2018-05-03T13:14:18.803Z,16.10
2018-05-03T13:16:46.940Z,16.20
2018-05-03T13:19:15.254Z,16.20
2018-05-03T13:21:43.351Z,16.20
2018-05-03T13:24:11.551Z,16.20
2018-05-03T13:26:39.974Z,16.20
2018-05-03T13:29:09.007Z,16.20
2018-05-03T13:31:37.159Z,16.10
2018-05-03T13:34:05.288Z,16.20
2018-05-03T13:36:33.433Z,16.20
2018-05-03T13:39:01.668Z,16.10
2018-05-03T13:41:30.725Z,16.20
2018-05-03T13:43:58.903Z,16.10
2018-05-03T13:46:27.926Z,16.20
2018-05-03T13:48:56.789Z,16.20
2018-05-03T13:51:24.870Z,16.10
2018-05-03T13:53:53.103Z,16.20
2018-05-03T13:56:21.300Z,16.20
2018-05-03T13:58:49.468Z,16.20
2018-05-03T14:01:17.726Z,16.20
2018-05-03T14:03:45.874Z,16.20
2018-05-03T14:06:14.848Z,16.20
2018-05-03T14:08:43.051Z,16.20
2018-05-03T14:11:11.980Z,16.20
2018-05-03T14:13:40.268Z,16.20
2018-05-03T14:16:08.486Z,16.20
2018-05-03T14:18:36.598Z,16.20
2018-05-03T14:21:04.726Z,16.20
2018-05-03T14:23:32.890Z,16.20
2018-05-03T14:26:01.005Z,16.20
2018-05-03T14:28:29.737Z,16.20
2018-05-03T14:30:57.842Z,16.10
2018-05-03T14:33:25.904Z,16.20
2018-05-03T14:35:54.142Z,16.20
2018-05-03T14:38:22.270Z,16.20
2018-05-03T14:40:51.232Z,16.20
2018-05-03T14:43:19.319Z,16.20
2018-05-03T14:45:47.370Z,16.20
2018-05-03T14:48:15.413Z,16.20
2018-05-03T14:50:43.513Z,16.20
2018-05-03T14:53:11.578Z,16.20
2018-05-03T14:55:39.671Z,16.20
2018-05-03T14:58:07.841Z,16.20
2018-05-03T15:00:36.484Z,16.20
2018-05-03T15:03:04.703Z,16.20
2018-05-03T15:05:32.731Z,16.20
2018-05-03T15:08:00.832Z,16.20
2018-05-03T15:10:28.836Z,16.20
2018-05-03T15:12:56.817Z,16.20
2018-05-03T15:15:25.135Z,16.20
2018-05-03T15:17:53.097Z,16.20
2018-05-03T15:20:21.164Z,16.20
2018-05-03T15:22:48.880Z,16.20
2018-05-03T15:25:17.072Z,16.20
2018-05-03T15:27:45.976Z,16.20
2018-05-03T15:30:13.965Z,16.10
2018-05-03T15:32:41.995Z,16.10
2018-05-03T15:35:09.950Z,16.20
2018-05-03T15:37:37.861Z,16.10
2018-05-03T15:40:05.748Z,16.20
2018-05-03T15:42:33.442Z,16.20
2018-05-03T15:45:01.534Z,16.20
2018-05-03T15:47:29.440Z,16.20
2018-05-03T15:49:58.107Z,16.20
2018-05-03T15:52:26.573Z,16.20
2018-05-03T15:54:54.244Z,16.10
2018-05-03T15:57:21.868Z,16.20
2018-05-03T15:59:49.521Z,16.10
2018-05-03T16:02:17.934Z,16.20
2018-05-03T16:04:45.626Z,16.10
2018-05-03T16:07:13.318Z,16.10
2018-05-03T16:09:41.670Z,16.10
2018-05-03T16:12:09.392Z,16.10
2018-05-03T16:14:37.071Z,16.10
2018-05-03T16:17:04.754Z,16.10
2018-05-03T16:19:32.517Z,16.10
2018-05-03T16:22:00.189Z,16.00
2018-05-03T16:24:27.987Z,16.10
2018-05-03T16:26:56.442Z,16.00
2018-05-03T16:29:24.748Z,16.00
2018-05-03T16:31:52.779Z,16.10
2018-05-03T16:34:20.489Z,16.00
2018-05-03T16:36:48.203Z,16.10
2018-05-03T16:39:15.958Z,16.10
2018-05-03T16:41:43.613Z,16.10
2018-05-03T16:44:11.265Z,16.10
2018-05-03T16:46:39.716Z,16.10
2018-05-03T16:49:07.431Z,16.00
2018-05-03T16:51:35.097Z,16.10
2018-05-03T16:54:02.832Z,16.00
2018-05-03T16:56:30.573Z,16.10
2018-05-03T16:58:59.057Z,16.10
2018-05-03T17:01:26.703Z,16.00
2018-05-03T17:03:54.353Z,16.10
2018-05-03T17:06:21.991Z,16.00
2018-05-03T17:08:50.351Z,16.00
2018-05-03T17:11:18.013Z,16.00
2018-05-03T17:13:45.661Z,16.00
2018-05-03T17:16:13.339Z,15.90
2018-05-03T17:18:41.007Z,15.90
2018-05-03T17:21:09.415Z,15.90
2018-05-03T17:23:37.027Z,15.90
2018-05-03T17:26:04.746Z,15.90
2018-05-03T17:28:32.428Z,15.90
2018-05-03T17:31:00.032Z,15.90
2018-05-03T17:33:28.477Z,15.80
2018-05-03T17:35:56.828Z,15.80
2018-05-03T17:38:24.855Z,15.80
2018-05-03T17:40:52.475Z,15.80
2018-05-03T17:43:20.121Z,15.70
2018-05-03T17:45:47.725Z,15.70
2018-05-03T17:48:16.115Z,15.70
2018-05-03T17:50:43.712Z,15.70
2018-05-03T17:53:11.344Z,15.70
2018-05-03T17:55:40.488Z,15.70
2018-05-03T17:58:08.132Z,15.70
2018-05-03T18:00:35.842Z,15.70
2018-05-03T18:03:04.447Z,15.70
2018-05-03T18:05:32.196Z,15.60
2018-05-03T18:08:01.085Z,15.60
2018-05-03T18:10:28.725Z,15.60
2018-05-03T18:12:57.488Z,15.60
2018-05-03T18:15:26.015Z,15.60
2018-05-03T18:17:53.722Z,15.60
2018-05-03T18:20:21.645Z,15.60
2018-05-03T18:22:49.379Z,15.60
2018-05-03T18:25:17.003Z,15.60
2018-05-03T18:27:44.648Z,15.60
2018-05-03T18:30:12.693Z,15.60
2018-05-03T18:32:41.233Z,15.60
2018-05-03T18:35:08.783Z,15.50
2018-05-03T18:37:36.390Z,15.60
2018-05-03T18:40:04.049Z,15.60
2018-05-03T18:42:31.932Z,15.60
2018-05-03T18:45:00.431Z,15.60
2018-05-03T18:47:28.532Z,15.50
2018-05-03T18:49:56.332Z,15.60
2018-05-03T18:52:23.903Z,15.60
2018-05-03T18:54:51.573Z,15.50
2018-05-03T18:57:20.191Z,15.50
2018-05-03T18:59:47.844Z,15.50
2018-05-03T19:02:15.434Z,15.50
2018-05-03T19:04:43.099Z,15.50
2018-05-03T19:07:10.848Z,15.50
2018-05-03T19:09:41.130Z,15.40
2018-05-03T19:12:08.826Z,15.40
2018-05-03T19:14:36.510Z,15.50
2018-05-03T19:17:04.536Z,15.50
2018-05-03T19:19:32.197Z,15.50
2018-05-03T19:22:06.688Z,15.50
2018-05-03T19:24:34.438Z,15.40
2018-05-03T19:27:02.401Z,15.50
2018-05-03T19:29:30.979Z,15.40
2018-05-03T19:31:58.596Z,15.40
2018-05-03T19:34:26.385Z,15.40
2018-05-03T19:36:54.358Z,15.40
2018-05-03T19:39:22.280Z,15.40
2018-05-03T19:41:49.932Z,15.40
2018-05-03T19:44:17.538Z,15.40
2018-05-03T19:46:45.166Z,15.40
2018-05-03T19:49:12.872Z,15.50
2018-05-03T19:51:41.528Z,15.40
2018-05-03T19:54:10.020Z,15.50
2018-05-03T19:56:38.451Z,15.40
2018-05-03T19:59:06.132Z,15.40
2018-05-03T20:01:34.002Z,15.40
2018-05-03T20:04:01.970Z,15.40
2018-05-03T20:06:29.739Z,15.40
2018-05-03T20:08:57.440Z,15.50
2018-05-03T20:11:26.178Z,15.50
2018-05-03T20:13:53.896Z,15.40
2018-05-03T20:16:22.452Z,15.40
2018-05-03T20:18:50.426Z,15.40
2018-05-03T20:21:19.102Z,15.40
2018-05-03T20:23:47.845Z,15.40
2018-05-03T20:26:15.631Z,15.40
2018-05-03T20:28:43.632Z,15.40
2018-05-03T20:31:11.646Z,15.40
2018-05-03T20:33:39.487Z,15.40
2018-05-03T20:36:07.646Z,15.40
2018-05-03T20:38:36.201Z,15.30
2018-05-03T20:41:03.963Z,15.30
2018-05-03T20:43:31.597Z,15.30
2018-05-03T20:46:00.314Z,15.20
2018-05-03T20:48:27.922Z,15.20
2018-05-03T20:50:55.676Z,15.20
2018-05-03T20:53:23.657Z,15.30
2018-05-03T20:55:51.725Z,15.20
2018-05-03T20:58:19.745Z,15.20
2018-05-03T21:00:47.878Z,15.20
2018-05-03T21:03:15.915Z,15.20
2018-05-03T21:05:44.058Z,15.20
2018-05-03T21:08:11.754Z,15.10
2018-05-03T21:10:39.786Z,15.10
2018-05-03T21:13:07.881Z,15.10
2018-05-03T21:15:35.592Z,15.10
2018-05-03T21:18:03.286Z,15.10
2018-05-03T21:20:31.798Z,15.10
2018-05-03T21:22:59.388Z,15.00
2018-05-03T21:25:27.087Z,15.10
2018-05-03T21:27:55.460Z,15.10
2018-05-03T21:30:23.831Z,15.10
2018-05-03T21:32:51.495Z,15.00
2018-05-03T21:35:19.899Z,15.00
2018-05-03T21:37:47.522Z,15.00
2018-05-03T21:40:15.116Z,15.10
2018-05-03T21:42:43.511Z,15.00
2018-05-03T21:45:11.103Z,15.00
2018-05-03T21:47:38.709Z,15.00
2018-05-03T21:50:07.141Z,15.00
2018-05-03T21:52:34.729Z,14.90
2018-05-03T21:55:02.315Z,15.00
2018-05-03T21:57:30.718Z,15.00
2018-05-03T21:59:58.306Z,14.90
2018-05-03T22:02:25.899Z,15.00
2018-05-03T22:04:53.575Z,15.00
2018-05-03T22:07:21.927Z,15.00
2018-05-03T22:09:49.542Z,14.90
2018-05-03T22:12:17.164Z,15.00
2018-05-03T22:14:44.774Z,14.90
2018-05-03T22:17:12.402Z,14.90
2018-05-03T22:19:40.760Z,14.90
2018-05-03T22:22:08.387Z,14.90
2018-05-03T22:24:35.999Z,14.90
2018-05-03T22:27:04.397Z,14.80
2018-05-03T22:29:31.990Z,14.80
2018-05-03T22:31:59.619Z,14.90
2018-05-03T22:34:27.974Z,14.80
2018-05-03T22:36:55.606Z,14.80
2018-05-03T22:39:23.203Z,14.90
2018-05-03T22:41:51.593Z,14.80
2018-05-03T22:44:19.983Z,14.80
2018-05-03T22:46:47.574Z,14.80
2018-05-03T22:49:15.257Z,14.80
2018-05-03T22:51:42.851Z,14.80
2018-05-03T22:54:11.203Z,14.80
2018-05-03T22:56:38.831Z,14.70
2018-05-03T22:59:06.423Z,14.70
2018-05-03T23:01:34.062Z,14.70
2018-05-03T23:04:01.655Z,14.70
2018-05-03T23:06:29.247Z,14.70
2018-05-03T23:08:56.923Z,14.70
2018-05-03T23:11:24.511Z,14.70
2018-05-03T23:13:52.177Z,14.70
2018-05-03T23:16:19.811Z,14.70
2018-05-03T23:18:47.399Z,14.70
2018-05-03T23:21:15.052Z,14.70
2018-05-03T23:23:42.637Z,14.80
2018-05-03T23:26:10.237Z,14.80
2018-05-03T23:28:37.875Z,14.80
2018-05-03T23:31:05.475Z,14.70
2018-05-03T23:33:33.119Z,14.70
2018-05-03T23:36:01.512Z,14.70
2018-05-03T23:38:29.146Z,14.70
2018-05-03T23:40:57.516Z,14.70
2018-05-03T23:43:25.926Z,14.70
2018-05-03T23:45:53.518Z,14.60
2018-05-03T23:48:21.110Z,14.70
2018-05-03T23:50:48.743Z,14.60
2018-05-03T23:53:16.339Z,14.60
2018-05-03T23:55:43.979Z,14.60
2018-05-03T23:58:11.585Z,14.60
